createdAt,value
2017-06-29T00:00:09.215Z,932.75
2017-06-29T00:00:29.199Z,932.73
2017-06-29T00:00:48.518Z,932.76
2017-06-29T00:01:07.847Z,932.77
2017-06-29T00:01:26.665Z,932.74
2017-06-29T00:01:45.944Z,932.76
2017-06-29T00:02:05.254Z,932.73
2017-06-29T00:02:24.575Z,932.73
2017-06-29T00:02:43.902Z,932.77
2017-06-29T00:03:03.215Z,932.77
2017-06-29T00:03:22.515Z,932.77
2017-06-29T00:03:41.811Z,932.75
2017-06-29T00:04:01.118Z,932.8
2017-06-29T00:04:20.444Z,932.76
2017-06-29T00:04:39.788Z,932.77
2017-06-29T00:04:59.091Z,932.76
2017-06-29T00:05:18.416Z,932.76
2017-06-29T00:05:37.730Z,932.75
2017-06-29T00:05:56.510Z,932.76
2017-06-29T00:06:15.796Z,932.73
2017-06-29T00:06:35.127Z,932.76
2017-06-29T00:06:54.440Z,932.77
2017-06-29T00:07:13.750Z,932.78
2017-06-29T00:07:33.088Z,932.74
2017-06-29T00:07:52.402Z,932.77
2017-06-29T00:08:11.714Z,932.79
2017-06-29T00:08:31.010Z,932.79
2017-06-29T00:08:50.300Z,932.81
2017-06-29T00:09:09.603Z,932.76
2017-06-29T00:09:28.912Z,932.8
2017-06-29T00:09:47.681Z,932.79
2017-06-29T00:10:06.993Z,932.81
2017-06-29T00:10:25.809Z,932.83
2017-06-29T00:10:45.131Z,932.79
2017-06-29T00:11:04.457Z,932.84
2017-06-29T00:11:23.748Z,932.82
2017-06-29T00:11:43.064Z,932.85
2017-06-29T00:12:02.387Z,932.85
2017-06-29T00:12:20.654Z,932.86
2017-06-29T00:12:39.987Z,932.83
2017-06-29T00:12:59.311Z,932.84
2017-06-29T00:13:17.590Z,932.88
2017-06-29T00:13:36.391Z,932.87
2017-06-29T00:13:55.759Z,932.86
2017-06-29T00:14:15.069Z,932.86
2017-06-29T00:14:34.379Z,932.85
2017-06-29T00:14:53.709Z,932.88
2017-06-29T00:15:13.013Z,932.86
2017-06-29T00:15:32.327Z,932.88
2017-06-29T00:15:51.633Z,932.87
2017-06-29T00:16:10.962Z,932.86
2017-06-29T00:16:30.276Z,932.84
2017-06-29T00:16:49.591Z,932.84
2017-06-29T00:17:08.904Z,932.85
2017-06-29T00:17:28.258Z,932.82
2017-06-29T00:17:47.560Z,932.86
2017-06-29T00:18:06.352Z,932.83
2017-06-29T00:18:25.663Z,932.79
2017-06-29T00:18:44.977Z,932.81
2017-06-29T00:19:04.324Z,932.84
2017-06-29T00:19:23.121Z,932.84
2017-06-29T00:19:42.442Z,932.8
2017-06-29T00:20:00.728Z,932.81
2017-06-29T00:20:19.526Z,932.81
2017-06-29T00:20:38.829Z,932.81
2017-06-29T00:20:58.153Z,932.82
2017-06-29T00:21:16.965Z,932.84
2017-06-29T00:21:36.279Z,932.85
2017-06-29T00:21:55.576Z,932.89
2017-06-29T00:22:14.368Z,932.83
2017-06-29T00:22:33.695Z,932.86
2017-06-29T00:22:53.025Z,932.86
2017-06-29T00:23:12.369Z,932.86
2017-06-29T00:23:31.677Z,932.88
2017-06-29T00:23:50.997Z,932.87
2017-06-29T00:24:10.305Z,932.84
2017-06-29T00:24:29.587Z,932.84
2017-06-29T00:24:48.358Z,932.86
2017-06-29T00:25:07.666Z,932.82
2017-06-29T00:25:26.966Z,932.83
2017-06-29T00:25:46.280Z,932.88
2017-06-29T00:26:05.587Z,932.91
2017-06-29T00:26:24.925Z,932.88
2017-06-29T00:26:43.719Z,932.9
2017-06-29T00:27:03.048Z,932.88
2017-06-29T00:27:22.398Z,932.89
2017-06-29T00:27:41.190Z,932.9
2017-06-29T00:28:00.509Z,932.91
2017-06-29T00:28:19.815Z,932.9
2017-06-29T00:28:39.160Z,932.9
2017-06-29T00:28:58.494Z,932.93
2017-06-29T00:29:17.802Z,932.93
2017-06-29T00:29:37.116Z,932.92
2017-06-29T00:29:55.920Z,932.95
2017-06-29T00:30:14.730Z,932.96
2017-06-29T00:30:33.507Z,932.95
2017-06-29T00:31:07.133Z,932.94
2017-06-29T00:31:26.764Z,932.98
2017-06-29T00:32:21.438Z,933.03
2017-06-29T00:32:40.943Z,932.97
2017-06-29T00:33:00.395Z,932.95
2017-06-29T00:33:33.830Z,933
2017-06-29T00:33:53.901Z,933.02
2017-06-29T00:34:13.225Z,933.02
2017-06-29T00:34:32.516Z,932.97
2017-06-29T00:34:51.841Z,932.95
2017-06-29T00:35:11.156Z,932.94
2017-06-29T00:35:30.461Z,932.96
2017-06-29T00:35:49.775Z,932.93
2017-06-29T00:36:09.107Z,932.94
2017-06-29T00:36:28.429Z,932.94
2017-06-29T00:36:47.732Z,932.95
2017-06-29T00:37:06.509Z,932.92
2017-06-29T00:37:25.814Z,932.91
2017-06-29T00:37:45.103Z,932.9
2017-06-29T00:38:04.675Z,932.92
2017-06-29T00:38:23.462Z,932.9
2017-06-29T00:38:42.757Z,932.93
2017-06-29T00:39:02.063Z,932.91
2017-06-29T00:39:21.366Z,932.91
2017-06-29T00:39:40.735Z,932.9
2017-06-29T00:40:00.056Z,932.92
2017-06-29T00:40:19.347Z,932.9
2017-06-29T00:40:38.628Z,932.91
2017-06-29T00:40:57.921Z,932.91
2017-06-29T00:41:17.288Z,932.85
2017-06-29T00:41:36.572Z,932.87
2017-06-29T00:41:55.905Z,932.88
2017-06-29T00:42:15.245Z,932.9
2017-06-29T00:42:34.594Z,932.93
2017-06-29T00:42:53.892Z,932.87
2017-06-29T00:43:12.150Z,932.88
2017-06-29T00:43:31.430Z,932.88
2017-06-29T00:43:50.760Z,932.91
2017-06-29T00:44:09.554Z,932.89
2017-06-29T00:44:28.905Z,932.89
2017-06-29T00:44:47.682Z,932.86
2017-06-29T00:45:06.996Z,932.9
2017-06-29T00:45:26.308Z,932.91
2017-06-29T00:45:45.115Z,932.86
2017-06-29T00:46:04.445Z,932.89
2017-06-29T00:46:23.734Z,932.92
2017-06-29T00:46:42.523Z,932.92
2017-06-29T00:47:01.829Z,932.92
2017-06-29T00:47:20.636Z,932.91
2017-06-29T00:47:39.440Z,932.9
2017-06-29T00:47:58.743Z,932.93
2017-06-29T00:48:18.044Z,932.91
2017-06-29T00:48:37.384Z,932.9
2017-06-29T00:48:56.700Z,932.93
2017-06-29T00:49:15.511Z,932.91
2017-06-29T00:49:34.857Z,932.92
2017-06-29T00:49:54.182Z,932.89
2017-06-29T00:50:13.499Z,932.91
2017-06-29T00:50:32.808Z,932.9
2017-06-29T00:50:52.109Z,932.88
2017-06-29T00:51:11.556Z,932.92
2017-06-29T00:51:30.861Z,932.88
2017-06-29T00:51:50.169Z,932.89
2017-06-29T00:52:09.467Z,932.89
2017-06-29T00:52:28.798Z,932.87
2017-06-29T00:52:48.106Z,932.88
2017-06-29T00:53:07.446Z,932.86
2017-06-29T00:53:26.231Z,932.89
2017-06-29T00:53:45.584Z,932.88
2017-06-29T00:54:04.913Z,932.87
2017-06-29T00:54:24.272Z,932.86
2017-06-29T00:54:43.580Z,932.89
2017-06-29T00:55:02.908Z,932.85
2017-06-29T00:55:21.217Z,932.85
2017-06-29T00:55:40.531Z,932.9
2017-06-29T00:55:59.843Z,932.91
2017-06-29T00:56:19.150Z,932.9
2017-06-29T00:56:38.491Z,932.9
2017-06-29T00:56:57.834Z,932.91
2017-06-29T00:57:16.631Z,932.91
2017-06-29T00:57:35.968Z,932.94
2017-06-29T00:57:55.288Z,932.88
2017-06-29T00:58:13.564Z,932.89
2017-06-29T00:58:32.908Z,932.93
2017-06-29T00:58:52.221Z,932.91
2017-06-29T00:59:11.553Z,932.92
2017-06-29T00:59:30.859Z,932.88
2017-06-29T00:59:50.198Z,932.87
2017-06-29T01:00:09.541Z,932.89
2017-06-29T01:00:28.890Z,932.89
2017-06-29T01:00:48.205Z,932.9
2017-06-29T01:01:07.505Z,932.92
2017-06-29T01:01:26.802Z,932.91
2017-06-29T01:01:46.094Z,932.91
2017-06-29T01:02:05.405Z,932.91
2017-06-29T01:02:24.188Z,932.95
2017-06-29T01:02:43.518Z,932.95
2017-06-29T01:03:02.831Z,932.94
2017-06-29T01:03:22.132Z,932.93
2017-06-29T01:03:41.450Z,932.93
2017-06-29T01:04:00.261Z,932.97
2017-06-29T01:04:19.555Z,932.97
2017-06-29T01:04:38.857Z,932.93
2017-06-29T01:04:58.151Z,932.95
2017-06-29T01:05:17.493Z,932.95
2017-06-29T01:05:36.810Z,932.92
2017-06-29T01:05:55.608Z,932.9
2017-06-29T01:06:14.893Z,932.92
2017-06-29T01:06:34.217Z,932.95
2017-06-29T01:06:53.525Z,932.93
2017-06-29T01:07:12.836Z,932.93
2017-06-29T01:07:32.178Z,932.97
2017-06-29T01:07:50.951Z,932.93
2017-06-29T01:08:10.294Z,932.92
2017-06-29T01:08:29.596Z,932.94
2017-06-29T01:08:48.920Z,932.98
2017-06-29T01:09:08.239Z,932.94
2017-06-29T01:09:27.595Z,932.95
2017-06-29T01:09:46.902Z,932.93
2017-06-29T01:10:05.705Z,932.88
2017-06-29T01:10:25.011Z,932.92
2017-06-29T01:10:44.302Z,932.89
2017-06-29T01:11:03.615Z,932.89
2017-06-29T01:11:22.954Z,932.89
2017-06-29T01:11:42.250Z,932.89
2017-06-29T01:12:01.577Z,932.87
2017-06-29T01:12:20.871Z,932.81
2017-06-29T01:12:40.219Z,932.85
2017-06-29T01:12:59.562Z,932.81
2017-06-29T01:13:18.489Z,932.81
2017-06-29T01:13:37.806Z,932.83
2017-06-29T01:13:57.127Z,932.85
2017-06-29T01:14:15.917Z,932.81
2017-06-29T01:14:35.250Z,932.82
2017-06-29T01:14:54.592Z,932.83
2017-06-29T01:15:13.950Z,932.86
2017-06-29T01:15:33.262Z,932.81
2017-06-29T01:15:52.598Z,932.83
2017-06-29T01:16:11.958Z,932.79
2017-06-29T01:16:31.268Z,932.81
2017-06-29T01:16:50.565Z,932.83
2017-06-29T01:17:09.875Z,932.83
2017-06-29T01:17:29.185Z,932.84
2017-06-29T01:17:48.531Z,932.79
2017-06-29T01:18:07.842Z,932.79
2017-06-29T01:18:27.150Z,932.81
2017-06-29T01:18:46.446Z,932.8
2017-06-29T01:19:05.779Z,932.83
2017-06-29T01:19:24.552Z,932.8
2017-06-29T01:19:43.853Z,932.79
2017-06-29T01:20:02.649Z,932.74
2017-06-29T01:20:21.430Z,932.8
2017-06-29T01:20:40.219Z,932.77
2017-06-29T01:20:58.506Z,932.77
2017-06-29T01:21:17.324Z,932.77
2017-06-29T01:21:36.680Z,932.75
2017-06-29T01:21:55.979Z,932.79
2017-06-29T01:22:15.300Z,932.79
2017-06-29T01:22:34.094Z,932.77
2017-06-29T01:22:53.385Z,932.77
2017-06-29T01:23:12.170Z,932.77
2017-06-29T01:23:31.502Z,932.75
2017-06-29T01:23:50.794Z,932.76
2017-06-29T01:24:09.580Z,932.81
2017-06-29T01:24:28.390Z,932.77
2017-06-29T01:24:47.702Z,932.8
2017-06-29T01:25:07.010Z,932.81
2017-06-29T01:25:26.315Z,932.79
2017-06-29T01:25:45.637Z,932.8
2017-06-29T01:26:04.925Z,932.8
2017-06-29T01:26:24.248Z,932.83
2017-06-29T01:26:43.559Z,932.79
2017-06-29T01:27:02.852Z,932.81
2017-06-29T01:27:21.135Z,932.8
2017-06-29T01:27:40.468Z,932.79
2017-06-29T01:27:59.793Z,932.8
2017-06-29T01:28:19.199Z,932.78
2017-06-29T01:28:38.496Z,932.81
2017-06-29T01:28:57.788Z,932.8
2017-06-29T01:29:17.094Z,932.81
2017-06-29T01:29:36.391Z,932.82
2017-06-29T01:29:55.735Z,932.8
2017-06-29T01:30:15.079Z,932.78
2017-06-29T01:30:33.877Z,932.79
2017-06-29T01:30:53.203Z,932.78
2017-06-29T01:31:12.011Z,932.78
2017-06-29T01:31:31.308Z,932.82
2017-06-29T01:31:50.646Z,932.78
2017-06-29T01:32:09.930Z,932.78
2017-06-29T01:32:29.214Z,932.81
2017-06-29T01:32:47.993Z,932.79
2017-06-29T01:33:06.768Z,932.8
2017-06-29T01:33:25.576Z,932.78
2017-06-29T01:33:44.900Z,932.78
2017-06-29T01:34:04.207Z,932.78
2017-06-29T01:34:23.570Z,932.77
2017-06-29T01:34:42.381Z,932.76
2017-06-29T01:35:01.706Z,932.81
2017-06-29T01:35:21.011Z,932.78
2017-06-29T01:35:39.807Z,932.8
2017-06-29T01:35:59.135Z,932.77
2017-06-29T01:36:18.444Z,932.81
2017-06-29T01:36:37.251Z,932.8
2017-06-29T01:36:55.516Z,932.81
2017-06-29T01:37:14.295Z,932.81
2017-06-29T01:37:33.596Z,932.8
2017-06-29T01:37:52.907Z,932.78
2017-06-29T01:38:12.230Z,932.76
2017-06-29T01:38:31.551Z,932.77
2017-06-29T01:38:50.945Z,932.77
2017-06-29T01:39:10.280Z,932.76
2017-06-29T01:39:29.566Z,932.79
2017-06-29T01:39:48.855Z,932.76
2017-06-29T01:40:08.153Z,932.76
2017-06-29T01:40:27.475Z,932.79
2017-06-29T01:40:46.791Z,932.8
2017-06-29T01:41:06.126Z,932.81
2017-06-29T01:41:25.436Z,932.79
2017-06-29T01:41:44.752Z,932.8
2017-06-29T01:42:04.042Z,932.82
2017-06-29T01:42:22.295Z,932.82
2017-06-29T01:42:41.623Z,932.83
2017-06-29T01:43:00.937Z,932.83
2017-06-29T01:43:19.765Z,932.83
2017-06-29T01:43:39.091Z,932.85
2017-06-29T01:43:58.409Z,932.83
2017-06-29T01:44:16.719Z,932.83
2017-06-29T01:44:36.033Z,932.83
2017-06-29T01:44:55.351Z,932.83
2017-06-29T01:45:14.661Z,932.82
2017-06-29T01:45:33.979Z,932.8
2017-06-29T01:45:53.282Z,932.81
2017-06-29T01:46:12.583Z,932.82
2017-06-29T01:46:31.865Z,932.77
2017-06-29T01:46:51.170Z,932.85
2017-06-29T01:47:10.471Z,932.83
2017-06-29T01:47:29.238Z,932.83
2017-06-29T01:47:48.022Z,932.83
2017-06-29T01:48:07.346Z,932.8
2017-06-29T01:48:25.616Z,932.83
2017-06-29T01:48:44.937Z,932.83
2017-06-29T01:49:03.734Z,932.8
2017-06-29T01:49:22.514Z,932.81
2017-06-29T01:49:41.811Z,932.83
2017-06-29T01:50:01.124Z,932.8
2017-06-29T01:50:19.894Z,932.78
2017-06-29T01:50:38.704Z,932.8
2017-06-29T01:50:58.040Z,932.81
2017-06-29T01:51:16.839Z,932.81
2017-06-29T01:51:35.619Z,932.84
2017-06-29T01:51:54.921Z,932.79
2017-06-29T01:52:14.273Z,932.8
2017-06-29T01:52:33.564Z,932.81
2017-06-29T01:52:52.891Z,932.81
2017-06-29T01:53:11.680Z,932.85
2017-06-29T01:53:30.997Z,932.82
2017-06-29T01:53:50.293Z,932.81
2017-06-29T01:54:09.627Z,932.84
2017-06-29T01:54:28.954Z,932.83
2017-06-29T01:54:48.260Z,932.78
2017-06-29T01:55:07.585Z,932.8
2017-06-29T01:55:26.920Z,932.81
2017-06-29T01:55:45.722Z,932.83
2017-06-29T01:56:05.033Z,932.76
2017-06-29T01:56:24.389Z,932.77
2017-06-29T01:56:43.781Z,932.79
2017-06-29T01:57:03.088Z,932.8
2017-06-29T01:57:22.405Z,932.75
2017-06-29T01:57:41.753Z,932.78
2017-06-29T01:58:01.091Z,932.78
2017-06-29T01:58:19.937Z,932.77
2017-06-29T01:58:39.267Z,932.75
2017-06-29T01:58:58.573Z,932.81
2017-06-29T01:59:18.059Z,932.77
2017-06-29T01:59:37.390Z,932.8
2017-06-29T01:59:56.699Z,932.8
2017-06-29T02:00:15.506Z,932.79
2017-06-29T02:00:34.826Z,932.8
2017-06-29T02:00:54.112Z,932.8
2017-06-29T02:01:13.442Z,932.8
2017-06-29T02:01:32.769Z,932.76
2017-06-29T02:01:52.059Z,932.78
2017-06-29T02:02:11.352Z,932.75
2017-06-29T02:02:30.652Z,932.77
2017-06-29T02:02:49.945Z,932.79
2017-06-29T02:03:08.754Z,932.83
2017-06-29T02:03:28.676Z,932.79
2017-06-29T02:03:47.996Z,932.77
2017-06-29T02:04:07.307Z,932.78
2017-06-29T02:04:26.609Z,932.78
2017-06-29T02:04:45.971Z,932.78
2017-06-29T02:05:05.278Z,932.76
2017-06-29T02:05:24.599Z,932.75
2017-06-29T02:05:43.880Z,932.77
2017-06-29T02:06:03.194Z,932.7
2017-06-29T02:06:22.468Z,932.72
2017-06-29T02:06:41.258Z,932.75
2017-06-29T02:07:00.587Z,932.68
2017-06-29T02:07:19.376Z,932.71
2017-06-29T02:07:38.733Z,932.71
2017-06-29T02:07:58.046Z,932.7
2017-06-29T02:08:16.825Z,932.72
2017-06-29T02:08:36.142Z,932.72
2017-06-29T02:08:55.472Z,932.67
2017-06-29T02:09:14.790Z,932.68
2017-06-29T02:09:34.099Z,932.69
2017-06-29T02:09:52.894Z,932.7
2017-06-29T02:10:12.199Z,932.68
2017-06-29T02:10:31.528Z,932.69
2017-06-29T02:10:50.307Z,932.69
2017-06-29T02:11:09.649Z,932.69
2017-06-29T02:11:28.973Z,932.69
2017-06-29T02:11:47.772Z,932.72
2017-06-29T02:12:07.097Z,932.71
2017-06-29T02:12:26.415Z,932.74
2017-06-29T02:12:45.784Z,932.71
2017-06-29T02:13:05.104Z,932.71
2017-06-29T02:13:24.454Z,932.7
2017-06-29T02:13:43.767Z,932.68
2017-06-29T02:14:03.090Z,932.68
2017-06-29T02:14:22.399Z,932.69
2017-06-29T02:14:41.194Z,932.7
2017-06-29T02:15:00.001Z,932.73
2017-06-29T02:15:19.299Z,932.71
2017-06-29T02:15:38.608Z,932.69
2017-06-29T02:15:57.942Z,932.71
2017-06-29T02:16:31.238Z,932.69
2017-06-29T02:16:50.538Z,932.71
2017-06-29T02:17:09.351Z,932.74
2017-06-29T02:17:28.676Z,932.69
2017-06-29T02:17:47.987Z,932.7
2017-06-29T02:18:07.298Z,932.7
2017-06-29T02:18:26.609Z,932.71
2017-06-29T02:18:45.926Z,932.75
2017-06-29T02:19:04.750Z,932.72
2017-06-29T02:19:24.069Z,932.71
2017-06-29T02:19:43.399Z,932.74
2017-06-29T02:20:02.722Z,932.74
2017-06-29T02:20:22.042Z,932.71
2017-06-29T02:20:40.307Z,932.73
2017-06-29T02:20:59.651Z,932.72
2017-06-29T02:21:18.942Z,932.7
2017-06-29T02:21:38.269Z,932.71
2017-06-29T02:21:57.616Z,932.72
2017-06-29T02:22:16.947Z,932.71
2017-06-29T02:22:36.253Z,932.7
2017-06-29T02:22:55.583Z,932.74
2017-06-29T02:23:14.900Z,932.71
2017-06-29T02:23:34.233Z,932.72
2017-06-29T02:23:53.026Z,932.74
2017-06-29T02:24:12.379Z,932.72
2017-06-29T02:24:31.702Z,932.74
2017-06-29T02:24:51.039Z,932.74
2017-06-29T02:25:09.864Z,932.68
2017-06-29T02:25:29.179Z,932.71
2017-06-29T02:25:48.474Z,932.73
2017-06-29T02:26:07.814Z,932.71
2017-06-29T02:26:26.604Z,932.73
2017-06-29T02:26:45.927Z,932.75
2017-06-29T02:27:05.266Z,932.75
2017-06-29T02:27:24.610Z,932.72
2017-06-29T02:27:43.945Z,932.72
2017-06-29T02:28:03.243Z,932.71
2017-06-29T02:28:21.524Z,932.72
2017-06-29T02:28:40.847Z,932.72
2017-06-29T02:29:00.155Z,932.7
2017-06-29T02:29:19.460Z,932.73
2017-06-29T02:29:38.793Z,932.69
2017-06-29T02:29:58.120Z,932.72
2017-06-29T02:30:17.421Z,932.76
2017-06-29T02:30:36.735Z,932.76
2017-06-29T02:30:56.063Z,932.72
2017-06-29T02:31:15.380Z,932.72
2017-06-29T02:31:34.706Z,932.76
2017-06-29T02:31:54.040Z,932.76
2017-06-29T02:32:13.347Z,932.78
2017-06-29T02:32:32.650Z,932.77
2017-06-29T02:32:51.961Z,932.76
2017-06-29T02:33:11.261Z,932.73
2017-06-29T02:33:30.600Z,932.75
2017-06-29T02:33:49.904Z,932.74
2017-06-29T02:34:08.689Z,932.77
2017-06-29T02:34:27.993Z,932.72
2017-06-29T02:34:47.298Z,932.77
2017-06-29T02:35:06.082Z,932.79
2017-06-29T02:35:25.379Z,932.72
2017-06-29T02:35:44.176Z,932.71
2017-06-29T02:36:02.959Z,932.72
2017-06-29T02:36:21.216Z,932.72
2017-06-29T02:36:40.523Z,932.72
2017-06-29T02:36:59.842Z,932.72
2017-06-29T02:37:18.636Z,932.67
2017-06-29T02:37:37.961Z,932.69
2017-06-29T02:37:56.734Z,932.71
2017-06-29T02:38:16.055Z,932.68
2017-06-29T02:38:35.396Z,932.71
2017-06-29T02:38:54.185Z,932.66
2017-06-29T02:39:13.503Z,932.69
2017-06-29T02:39:32.807Z,932.68
2017-06-29T02:39:52.114Z,932.67
2017-06-29T02:40:11.510Z,932.68
2017-06-29T02:40:30.388Z,932.65
2017-06-29T02:40:49.677Z,932.66
2017-06-29T02:41:08.989Z,932.65
2017-06-29T02:41:27.789Z,932.67
2017-06-29T02:41:47.099Z,932.68
2017-06-29T02:42:06.411Z,932.63
2017-06-29T02:42:25.781Z,932.63
2017-06-29T02:42:45.110Z,932.66
2017-06-29T02:43:04.398Z,932.64
2017-06-29T02:43:23.740Z,932.64
2017-06-29T02:43:43.069Z,932.65
2017-06-29T02:44:02.374Z,932.65
2017-06-29T02:44:21.172Z,932.62
2017-06-29T02:44:40.486Z,932.62
2017-06-29T02:44:59.825Z,932.62
2017-06-29T02:45:18.618Z,932.6
2017-06-29T02:45:37.954Z,932.6
2017-06-29T02:45:57.307Z,932.59
2017-06-29T02:46:16.113Z,932.62
2017-06-29T02:46:35.436Z,932.61
2017-06-29T02:46:54.212Z,932.62
2017-06-29T02:47:13.501Z,932.58
2017-06-29T02:47:32.308Z,932.55
2017-06-29T02:47:51.623Z,932.57
2017-06-29T02:48:10.954Z,932.57
2017-06-29T02:48:29.769Z,932.59
2017-06-29T02:48:48.589Z,932.58
2017-06-29T02:49:07.900Z,932.56
2017-06-29T02:49:27.196Z,932.6
2017-06-29T02:49:46.539Z,932.6
2017-06-29T02:50:05.858Z,932.57
2017-06-29T02:50:24.692Z,932.56
2017-06-29T02:50:43.978Z,932.6
2017-06-29T02:51:03.288Z,932.58
2017-06-29T02:51:22.612Z,932.57
2017-06-29T02:51:41.410Z,932.58
2017-06-29T02:52:00.212Z,932.56
2017-06-29T02:52:18.488Z,932.6
2017-06-29T02:52:37.778Z,932.56
2017-06-29T02:52:57.107Z,932.57
2017-06-29T02:53:16.409Z,932.54
2017-06-29T02:53:35.752Z,932.54
2017-06-29T02:53:55.049Z,932.55
2017-06-29T02:54:14.376Z,932.57
2017-06-29T02:54:33.718Z,932.58
2017-06-29T02:54:53.055Z,932.56
2017-06-29T02:55:12.349Z,932.55
2017-06-29T02:55:31.673Z,932.57
2017-06-29T02:55:50.982Z,932.53
2017-06-29T02:56:10.328Z,932.52
2017-06-29T02:56:29.633Z,932.56
2017-06-29T02:56:48.432Z,932.55
2017-06-29T02:57:07.741Z,932.52
2017-06-29T02:57:27.040Z,932.53
2017-06-29T02:57:46.352Z,932.51
2017-06-29T02:58:05.637Z,932.48
2017-06-29T02:58:24.955Z,932.48
2017-06-29T02:58:44.260Z,932.51
2017-06-29T02:59:03.560Z,932.46
2017-06-29T02:59:22.888Z,932.45
2017-06-29T02:59:42.191Z,932.47
2017-06-29T03:00:01.496Z,932.47
2017-06-29T03:00:20.787Z,932.47
2017-06-29T03:00:40.100Z,932.47
2017-06-29T03:00:59.433Z,932.49
2017-06-29T03:01:18.218Z,932.47
2017-06-29T03:01:37.552Z,932.48
2017-06-29T03:01:56.331Z,932.52
2017-06-29T03:02:15.650Z,932.52
2017-06-29T03:02:34.975Z,932.5
2017-06-29T03:02:54.292Z,932.47
2017-06-29T03:03:13.589Z,932.45
2017-06-29T03:03:32.893Z,932.47
2017-06-29T03:03:52.203Z,932.47
2017-06-29T03:04:11.519Z,932.45
2017-06-29T03:04:30.319Z,932.45
2017-06-29T03:04:49.645Z,932.47
2017-06-29T03:05:08.949Z,932.45
2017-06-29T03:05:28.246Z,932.45
2017-06-29T03:05:47.060Z,932.46
2017-06-29T03:06:06.361Z,932.48
2017-06-29T03:06:25.650Z,932.47
2017-06-29T03:06:44.936Z,932.49
2017-06-29T03:07:04.231Z,932.44
2017-06-29T03:07:23.582Z,932.46
2017-06-29T03:07:42.871Z,932.44
2017-06-29T03:08:02.173Z,932.45
2017-06-29T03:08:21.479Z,932.46
2017-06-29T03:08:39.763Z,932.48
2017-06-29T03:08:59.068Z,932.47
2017-06-29T03:09:18.390Z,932.46
2017-06-29T03:09:37.214Z,932.45
2017-06-29T03:09:56.530Z,932.45
2017-06-29T03:10:15.827Z,932.42
2017-06-29T03:10:34.639Z,932.43
2017-06-29T03:10:53.978Z,932.45
2017-06-29T03:11:12.762Z,932.4
2017-06-29T03:11:31.575Z,932.47
2017-06-29T03:11:50.380Z,932.46
2017-06-29T03:12:09.708Z,932.44
2017-06-29T03:12:29.014Z,932.47
2017-06-29T03:12:48.323Z,932.44
2017-06-29T03:13:07.608Z,932.46
2017-06-29T03:13:26.945Z,932.48
2017-06-29T03:13:46.287Z,932.46
2017-06-29T03:14:05.612Z,932.45
2017-06-29T03:14:24.420Z,932.43
2017-06-29T03:14:43.254Z,932.46
2017-06-29T03:15:02.571Z,932.43
2017-06-29T03:15:21.361Z,932.47
2017-06-29T03:15:40.654Z,932.43
2017-06-29T03:16:00.030Z,932.42
2017-06-29T03:16:19.338Z,932.41
2017-06-29T03:16:38.133Z,932.4
2017-06-29T03:16:57.459Z,932.4
2017-06-29T03:17:16.236Z,932.42
2017-06-29T03:17:35.019Z,932.39
2017-06-29T03:17:54.398Z,932.4
2017-06-29T03:18:13.719Z,932.39
2017-06-29T03:18:33.029Z,932.38
2017-06-29T03:18:52.367Z,932.39
2017-06-29T03:19:11.671Z,932.38
2017-06-29T03:19:30.464Z,932.37
2017-06-29T03:19:49.757Z,932.39
2017-06-29T03:20:09.060Z,932.4
2017-06-29T03:20:27.852Z,932.37
2017-06-29T03:20:47.169Z,932.37
2017-06-29T03:21:06.464Z,932.38
2017-06-29T03:21:25.767Z,932.37
2017-06-29T03:21:45.080Z,932.37
2017-06-29T03:22:03.905Z,932.36
2017-06-29T03:22:23.221Z,932.39
2017-06-29T03:22:42.542Z,932.36
2017-06-29T03:23:01.813Z,932.37
2017-06-29T03:23:21.143Z,932.35
2017-06-29T03:23:40.480Z,932.35
2017-06-29T03:23:59.304Z,932.33
2017-06-29T03:24:18.605Z,932.34
2017-06-29T03:24:37.965Z,932.35
2017-06-29T03:24:57.274Z,932.34
2017-06-29T03:25:16.071Z,932.33
2017-06-29T03:25:35.377Z,932.35
2017-06-29T03:25:54.211Z,932.34
2017-06-29T03:26:13.555Z,932.34
2017-06-29T03:26:32.868Z,932.33
2017-06-29T03:26:52.193Z,932.34
2017-06-29T03:27:11.535Z,932.32
2017-06-29T03:27:30.848Z,932.31
2017-06-29T03:27:50.141Z,932.34
2017-06-29T03:28:09.452Z,932.33
2017-06-29T03:28:28.756Z,932.3
2017-06-29T03:28:48.046Z,932.32
2017-06-29T03:29:07.393Z,932.32
2017-06-29T03:29:26.696Z,932.32
2017-06-29T03:29:46.004Z,932.31
2017-06-29T03:30:05.347Z,932.34
2017-06-29T03:30:24.630Z,932.36
2017-06-29T03:30:43.962Z,932.31
2017-06-29T03:31:02.767Z,932.32
2017-06-29T03:31:22.070Z,932.3
2017-06-29T03:31:41.394Z,932.33
2017-06-29T03:32:00.723Z,932.34
2017-06-29T03:32:20.026Z,932.31
2017-06-29T03:32:39.307Z,932.31
2017-06-29T03:32:58.626Z,932.3
2017-06-29T03:33:17.414Z,932.3
2017-06-29T03:33:36.727Z,932.34
2017-06-29T03:33:56.030Z,932.27
2017-06-29T03:34:15.343Z,932.25
2017-06-29T03:34:34.674Z,932.3
2017-06-29T03:34:54.022Z,932.27
2017-06-29T03:35:12.812Z,932.27
2017-06-29T03:35:31.627Z,932.29
2017-06-29T03:35:50.948Z,932.3
2017-06-29T03:36:10.261Z,932.33
2017-06-29T03:36:29.557Z,932.3
2017-06-29T03:36:48.880Z,932.28
2017-06-29T03:37:07.666Z,932.29
2017-06-29T03:37:26.966Z,932.33
2017-06-29T03:37:46.259Z,932.27
2017-06-29T03:38:05.065Z,932.31
2017-06-29T03:38:24.415Z,932.33
2017-06-29T03:38:43.704Z,932.29
2017-06-29T03:39:02.488Z,932.32
2017-06-29T03:39:21.807Z,932.31
2017-06-29T03:39:41.141Z,932.31
2017-06-29T03:40:00.426Z,932.33
2017-06-29T03:40:19.203Z,932.29
2017-06-29T03:40:38.515Z,932.32
2017-06-29T03:40:57.286Z,932.28
2017-06-29T03:41:16.571Z,932.28
2017-06-29T03:41:35.899Z,932.32
2017-06-29T03:41:55.207Z,932.3
2017-06-29T03:42:14.517Z,932.31
2017-06-29T03:42:33.850Z,932.3
2017-06-29T03:42:53.173Z,932.29
2017-06-29T03:43:12.542Z,932.32
2017-06-29T03:43:31.853Z,932.32
2017-06-29T03:43:51.165Z,932.3
2017-06-29T03:44:09.958Z,932.3
2017-06-29T03:44:28.755Z,932.3
2017-06-29T03:44:48.054Z,932.3
2017-06-29T03:45:07.341Z,932.29
2017-06-29T03:45:25.662Z,932.27
2017-06-29T03:45:44.470Z,932.28
2017-06-29T03:46:03.775Z,932.26
2017-06-29T03:46:22.588Z,932.23
2017-06-29T03:46:41.903Z,932.23
2017-06-29T03:47:01.209Z,932.22
2017-06-29T03:47:20.052Z,932.27
2017-06-29T03:47:39.391Z,932.24
2017-06-29T03:47:58.708Z,932.22
2017-06-29T03:48:18.032Z,932.23
2017-06-29T03:48:37.324Z,932.22
2017-06-29T03:48:56.639Z,932.24
2017-06-29T03:49:15.941Z,932.22
2017-06-29T03:49:35.242Z,932.25
2017-06-29T03:49:54.544Z,932.23
2017-06-29T03:50:12.828Z,932.24
2017-06-29T03:50:31.094Z,932.2
2017-06-29T03:50:50.376Z,932.2
2017-06-29T03:51:09.697Z,932.21
2017-06-29T03:51:28.994Z,932.2
2017-06-29T03:51:48.317Z,932.21
2017-06-29T03:52:07.124Z,932.19
2017-06-29T03:52:26.465Z,932.25
2017-06-29T03:52:45.780Z,932.2
2017-06-29T03:53:05.099Z,932.19
2017-06-29T03:53:24.410Z,932.17
2017-06-29T03:53:43.235Z,932.18
2017-06-29T03:54:02.549Z,932.19
2017-06-29T03:54:21.334Z,932.2
2017-06-29T03:54:40.668Z,932.23
2017-06-29T03:54:59.961Z,932.23
2017-06-29T03:55:18.755Z,932.21
2017-06-29T03:55:38.080Z,932.19
2017-06-29T03:55:57.372Z,932.2
2017-06-29T03:56:16.662Z,932.22
2017-06-29T03:56:35.986Z,932.18
2017-06-29T03:56:55.265Z,932.19
2017-06-29T03:57:14.579Z,932.19
2017-06-29T03:57:33.371Z,932.2
2017-06-29T03:57:52.673Z,932.18
2017-06-29T03:58:11.975Z,932.18
2017-06-29T03:58:30.257Z,932.21
2017-06-29T03:58:49.535Z,932.2
2017-06-29T03:59:08.856Z,932.25
2017-06-29T03:59:28.186Z,932.2
2017-06-29T03:59:47.490Z,932.18
2017-06-29T04:00:06.793Z,932.18
2017-06-29T04:00:26.098Z,932.18
2017-06-29T04:00:49.452Z,932.14
2017-06-29T04:01:09.344Z,932.19
2017-06-29T04:01:28.133Z,932.16
2017-06-29T04:01:46.937Z,932.14